createdAt,value
2023-04-04T00:01:58.844Z,52.50
2023-04-04T00:04:44.458Z,52.20
2023-04-04T00:07:29.909Z,52.30
2023-04-04T00:10:16.066Z,52.70
2023-04-04T00:13:01.408Z,52.30
2023-04-04T00:15:46.973Z,52.60
2023-04-04T00:18:32.705Z,52.80
2023-04-04T00:21:18.426Z,53.00
2023-04-04T00:24:03.823Z,52.90
2023-04-04T00:26:49.228Z,52.30
2023-04-04T00:29:34.780Z,52.30
2023-04-04T00:32:20.633Z,52.60
2023-04-04T00:35:06.723Z,52.20
2023-04-04T00:37:52.505Z,51.80
2023-04-04T00:40:49.386Z,51.10
2023-04-04T00:43:35.771Z,51.10
2023-04-04T00:46:21.884Z,50.20
2023-04-04T00:49:07.904Z,50.40
2023-04-04T00:51:54.509Z,50.70
2023-04-04T00:54:39.947Z,50.30
2023-04-04T00:57:27.766Z,50.20
2023-04-04T01:00:15.400Z,50.90
2023-04-04T01:03:01.580Z,50.30
2023-04-04T01:05:47.477Z,49.70
2023-04-04T01:08:34.349Z,49.60
2023-04-04T01:11:20.098Z,50.00
2023-04-04T01:14:05.600Z,49.10
2023-04-04T01:16:51.666Z,49.70
2023-04-04T01:19:53.948Z,49.80
2023-04-04T01:22:40.843Z,49.20
2023-04-04T01:25:32.295Z,47.50
2023-04-04T01:28:17.964Z,47.50
2023-04-04T01:31:07.369Z,50.40
2023-04-04T01:34:00.998Z,49.20
2023-04-04T01:37:00.782Z,49.60
2023-04-04T01:39:57.215Z,49.70
2023-04-04T01:42:44.808Z,50.00
2023-04-04T01:45:30.782Z,50.00
2023-04-04T01:48:16.846Z,49.20
2023-04-04T01:51:02.853Z,49.60
2023-04-04T01:53:48.436Z,49.20
2023-04-04T01:56:34.510Z,49.10
2023-04-04T01:59:20.192Z,50.80
2023-04-04T02:02:05.866Z,50.40
2023-04-04T02:04:51.171Z,50.30
2023-04-04T02:07:37.361Z,51.90
2023-04-04T02:10:22.843Z,50.80
2023-04-04T02:13:08.329Z,51.40
2023-04-04T02:15:53.808Z,52.30
2023-04-04T02:18:39.245Z,50.90
2023-04-04T02:21:26.630Z,51.00
2023-04-04T02:24:11.903Z,51.40
2023-04-04T02:26:57.961Z,52.30
2023-04-04T02:29:43.318Z,52.80
2023-04-04T02:32:29.062Z,52.90
2023-04-04T02:35:14.983Z,52.50
2023-04-04T02:38:00.767Z,52.60
2023-04-04T02:40:46.691Z,53.60
2023-04-04T02:43:32.346Z,52.80
2023-04-04T02:46:21.623Z,53.40
2023-04-04T02:49:08.016Z,52.90
2023-04-04T02:51:54.912Z,53.40
2023-04-04T02:54:40.176Z,53.20
2023-04-04T02:57:25.970Z,54.00
2023-04-04T03:00:12.296Z,54.10
2023-04-04T03:02:58.683Z,53.70
2023-04-04T03:05:44.531Z,53.20
2023-04-04T03:08:30.622Z,54.10
2023-04-04T03:11:21.394Z,53.80
2023-04-04T03:14:07.675Z,53.50
2023-04-04T03:16:53.965Z,54.60
2023-04-04T03:19:40.634Z,54.10
2023-04-04T03:22:26.356Z,54.70
2023-04-04T03:25:12.135Z,55.40
2023-04-04T03:27:57.659Z,54.60
2023-04-04T03:30:43.417Z,54.70
2023-04-04T03:33:28.998Z,56.30
2023-04-04T03:36:14.673Z,54.70
2023-04-04T03:39:00.189Z,55.00
2023-04-04T03:41:45.844Z,56.50
2023-04-04T03:44:31.597Z,55.40
2023-04-04T03:47:17.050Z,55.60
2023-04-04T03:50:02.572Z,56.60
2023-04-04T03:52:48.268Z,55.30
2023-04-04T03:55:34.304Z,55.70
2023-04-04T03:58:19.809Z,55.80
2023-04-04T04:01:05.481Z,55.70
2023-04-04T04:03:51.124Z,55.70
2023-04-04T04:06:37.393Z,56.00
2023-04-04T04:09:23.004Z,56.10
2023-04-04T04:12:09.080Z,55.80
2023-04-04T04:14:54.928Z,56.20
2023-04-04T04:17:41.277Z,56.40
2023-04-04T04:20:27.169Z,56.70
2023-04-04T04:23:12.747Z,56.60
2023-04-04T04:25:58.512Z,57.90
2023-04-04T04:28:43.944Z,56.50
2023-04-04T04:31:29.136Z,56.90
2023-04-04T04:34:15.323Z,58.00
2023-04-04T04:37:00.507Z,57.50
2023-04-04T04:39:46.360Z,57.60
2023-04-04T04:42:32.257Z,57.60
2023-04-04T04:45:17.830Z,57.80
2023-04-04T04:48:03.720Z,57.60
2023-04-04T04:50:49.197Z,57.70
2023-04-04T04:53:34.747Z,58.30
2023-04-04T04:56:20.345Z,59.00
2023-04-04T04:59:07.548Z,59.70
2023-04-04T05:01:53.068Z,58.50
2023-04-04T05:04:38.478Z,59.50
2023-04-04T05:07:24.250Z,59.20
2023-04-04T05:10:10.257Z,59.50
2023-04-04T05:12:56.110Z,58.40
2023-04-04T05:15:42.005Z,59.30
2023-04-04T05:18:27.601Z,59.10
2023-04-04T05:21:13.428Z,58.70
2023-04-04T05:23:59.990Z,59.50
2023-04-04T05:26:45.597Z,59.10
2023-04-04T05:29:31.097Z,58.60
2023-04-04T05:32:16.566Z,58.40
2023-04-04T05:35:02.160Z,58.60
2023-04-04T05:37:47.770Z,58.70
2023-04-04T05:40:33.437Z,58.90
2023-04-04T05:43:18.704Z,59.50
2023-04-04T05:46:04.353Z,58.90
2023-04-04T05:48:50.588Z,58.70
2023-04-04T05:51:36.586Z,58.50
2023-04-04T05:54:22.728Z,58.30
2023-04-04T05:57:08.704Z,58.20
2023-04-04T05:59:54.687Z,58.10
2023-04-04T06:02:40.461Z,57.40
2023-04-04T06:05:25.913Z,57.40
2023-04-04T06:08:11.615Z,56.30
2023-04-04T06:10:56.925Z,57.60
2023-04-04T06:13:42.435Z,57.70
2023-04-04T06:16:28.145Z,56.40
2023-04-04T06:19:13.474Z,55.50
2023-04-04T06:21:59.149Z,56.00
2023-04-04T06:24:44.601Z,56.30
2023-04-04T06:27:30.212Z,54.90
2023-04-04T06:30:17.125Z,54.80
2023-04-04T06:33:02.553Z,56.10
2023-04-04T06:35:48.292Z,55.60
2023-04-04T06:38:34.252Z,55.40
2023-04-04T06:41:19.816Z,55.20
2023-04-04T06:44:05.105Z,54.70
2023-04-04T06:46:51.757Z,53.90
2023-04-04T06:49:37.515Z,54.70
2023-04-04T06:52:23.574Z,53.40
2023-04-04T06:55:09.158Z,52.70
2023-04-04T06:57:55.171Z,52.70
2023-04-04T07:00:41.371Z,52.30
2023-04-04T07:03:27.385Z,51.20
2023-04-04T07:06:12.911Z,53.10
2023-04-04T07:08:58.409Z,51.30
2023-04-04T07:11:43.811Z,51.60
2023-04-04T07:14:29.441Z,51.70
2023-04-04T07:17:24.154Z,50.60
2023-04-04T07:20:11.493Z,50.60
2023-04-04T07:22:57.064Z,51.00
2023-04-04T07:25:43.948Z,50.20
2023-04-04T07:28:29.737Z,50.00
2023-04-04T07:31:15.055Z,47.80
2023-04-04T07:34:00.779Z,48.20
2023-04-04T07:36:46.178Z,48.30
2023-04-04T07:39:32.008Z,47.40
2023-04-04T07:42:23.187Z,46.80
2023-04-04T07:45:09.262Z,47.20
2023-04-04T07:47:54.962Z,46.90
2023-04-04T07:50:40.329Z,46.00
2023-04-04T07:53:26.366Z,46.60
2023-04-04T07:56:11.693Z,45.80
2023-04-04T07:58:57.263Z,45.60
2023-04-04T08:01:45.086Z,44.80
2023-04-04T08:04:31.515Z,44.30
2023-04-04T08:07:17.024Z,45.80
2023-04-04T08:10:03.027Z,44.80
2023-04-04T08:12:49.167Z,45.20
2023-04-04T08:15:34.716Z,44.80
2023-04-04T08:18:20.335Z,44.80
2023-04-04T08:21:06.141Z,44.40
2023-04-04T08:23:51.763Z,43.30
2023-04-04T08:26:37.171Z,43.60
2023-04-04T08:29:23.145Z,43.70
2023-04-04T08:32:09.277Z,43.70
2023-04-04T08:34:54.551Z,42.50
2023-04-04T08:37:45.099Z,42.50
2023-04-04T08:40:32.758Z,41.60
2023-04-04T08:43:21.093Z,42.10
2023-04-04T08:46:11.372Z,40.70
2023-04-04T08:48:58.763Z,40.50
2023-04-04T08:51:45.989Z,40.90
2023-04-04T08:54:34.214Z,38.90
2023-04-04T08:57:20.033Z,40.30
2023-04-04T09:00:07.647Z,40.90
2023-04-04T09:02:59.552Z,39.40
2023-04-04T09:05:45.786Z,39.20
2023-04-04T09:08:31.648Z,38.50
2023-04-04T09:11:19.385Z,38.40
2023-04-04T09:14:05.071Z,37.40
2023-04-04T09:16:50.909Z,37.50
2023-04-04T09:19:37.566Z,38.00
2023-04-04T09:22:23.025Z,35.70
2023-04-04T09:25:08.873Z,36.20
2023-04-04T09:27:54.341Z,35.40
2023-04-04T09:30:39.801Z,33.10
2023-04-04T09:33:26.182Z,36.90
2023-04-04T09:36:13.322Z,34.00
2023-04-04T09:38:59.050Z,33.60
2023-04-04T09:41:47.519Z,34.90
2023-04-04T09:44:36.936Z,32.90
2023-04-04T09:50:23.895Z,34.10
2023-04-04T09:53:19.512Z,31.00
2023-04-04T09:56:06.685Z,33.90
2023-04-04T09:59:03.423Z,32.40
2023-04-04T10:01:52.053Z,30.70
2023-04-04T10:04:38.293Z,30.90
2023-04-04T10:07:31.041Z,30.30
2023-04-04T10:10:16.479Z,30.60
2023-04-04T10:13:02.628Z,30.10
2023-04-04T10:15:48.328Z,29.90
2023-04-04T10:18:35.554Z,29.50
2023-04-04T10:21:23.094Z,29.60
2023-04-04T10:24:10.215Z,27.90
2023-04-04T10:26:56.165Z,28.70
2023-04-04T10:29:41.517Z,28.40
2023-04-04T10:32:41.952Z,27.20
2023-04-04T10:35:29.182Z,29.30
2023-04-04T10:38:16.514Z,30.50
2023-04-04T10:41:03.090Z,26.70
2023-04-04T10:43:51.305Z,26.80
2023-04-04T10:46:41.643Z,24.70
2023-04-04T10:49:29.747Z,26.50
2023-04-04T10:52:20.907Z,25.80
2023-04-04T10:55:08.397Z,25.00
2023-04-04T10:57:55.425Z,22.00
2023-04-04T11:00:52.412Z,23.70
2023-04-04T11:04:21.472Z,21.10
2023-04-04T11:07:10.776Z,22.10
2023-04-04T11:09:57.028Z,24.00
2023-04-04T11:12:47.767Z,25.60
2023-04-04T11:15:48.092Z,25.20
2023-04-04T11:18:42.274Z,21.90
2023-04-04T11:21:32.486Z,22.70
2023-04-04T11:24:18.318Z,19.50
2023-04-04T11:27:07.973Z,22.40
2023-04-04T11:29:53.978Z,20.40
2023-04-04T11:32:50.109Z,20.90
2023-04-04T11:35:40.828Z,16.10
2023-04-04T11:38:27.360Z,19.60
2023-04-04T11:41:14.847Z,19.20
2023-04-04T11:44:09.038Z,20.30
2023-04-04T11:47:10.790Z,20.90
2023-04-04T11:49:57.083Z,15.50
2023-04-04T11:52:45.532Z,18.10
2023-04-04T11:55:32.139Z,19.90
2023-04-04T11:58:18.191Z,18.90
2023-04-04T12:01:03.727Z,18.60
2023-04-04T12:03:49.190Z,17.50
2023-04-04T12:06:37.495Z,13.50
2023-04-04T12:09:25.966Z,11.00
2023-04-04T12:12:19.025Z,15.60
2023-04-04T12:15:16.632Z,14.50
2023-04-04T12:18:07.988Z,14.40
2023-04-04T12:20:54.298Z,15.10
2023-04-04T12:23:40.078Z,14.00
2023-04-04T12:26:29.767Z,13.60
2023-04-04T12:29:17.233Z,15.10
2023-04-04T12:32:03.875Z,13.30
2023-04-04T12:34:50.787Z,15.60
2023-04-04T12:37:37.104Z,13.70
2023-04-04T12:40:23.361Z,13.20
2023-04-04T12:43:09.514Z,11.40
2023-04-04T12:45:59.454Z,13.60
2023-04-04T12:48:45.722Z,11.60
2023-04-04T12:51:35.090Z,11.70
2023-04-04T12:54:29.151Z,9.60
2023-04-04T12:57:22.525Z,10.30
2023-04-04T13:00:09.528Z,11.00
2023-04-04T13:02:55.536Z,10.80
2023-04-04T13:05:43.385Z,11.40
2023-04-04T13:08:29.024Z,10.50
2023-04-04T13:11:14.871Z,7.00
2023-04-04T13:14:04.099Z,12.90
2023-04-04T13:17:03.487Z,12.30
2023-04-04T13:19:48.750Z,10.10
2023-04-04T13:22:35.840Z,12.30
2023-04-04T13:25:21.490Z,11.10
2023-04-04T13:28:07.009Z,10.10
2023-04-04T13:30:53.473Z,9.00
2023-04-04T13:33:40.436Z,9.80
2023-04-04T13:36:28.383Z,11.40
2023-04-04T13:39:14.059Z,8.90
2023-04-04T13:41:59.680Z,11.90
2023-04-04T13:44:45.146Z,11.00
2023-04-04T13:47:30.684Z,8.90
2023-04-04T13:50:17.004Z,8.40
2023-04-04T13:53:02.449Z,11.60
2023-04-04T13:58:36.672Z,9.10
2023-04-04T14:01:23.272Z,9.50
2023-04-04T14:04:22.897Z,9.00
2023-04-04T14:07:09.936Z,8.60
2023-04-04T14:09:55.482Z,7.90
2023-04-04T14:12:40.860Z,8.80
2023-04-04T14:15:26.442Z,7.10
2023-04-04T14:18:12.609Z,7.00
2023-04-04T14:20:58.431Z,8.90
2023-04-04T14:23:43.890Z,9.10
2023-04-04T14:26:29.244Z,9.50
2023-04-04T14:29:14.948Z,7.50
2023-04-04T14:32:00.587Z,10.00
2023-04-04T14:34:46.075Z,8.50
2023-04-04T14:37:31.396Z,8.50
2023-04-04T14:40:16.841Z,7.90
2023-04-04T14:43:02.066Z,9.20
2023-04-04T14:45:47.578Z,9.80
2023-04-04T14:48:33.395Z,5.00
2023-04-04T14:51:20.019Z,7.20
2023-04-04T14:54:05.675Z,9.30
2023-04-04T14:56:51.311Z,9.20
2023-04-04T14:59:37.087Z,9.40
2023-04-04T15:02:22.792Z,9.80
2023-04-04T15:05:08.693Z,11.70
2023-04-04T15:07:54.241Z,9.00
2023-04-04T15:10:40.425Z,10.00
2023-04-04T15:13:26.142Z,9.90
2023-04-04T15:16:11.479Z,8.40
2023-04-04T15:18:56.886Z,9.90
2023-04-04T15:21:42.378Z,7.10
2023-04-04T15:24:27.731Z,10.40
2023-04-04T15:27:13.710Z,8.20
2023-04-04T15:29:59.743Z,8.10
2023-04-04T15:32:45.377Z,8.20
2023-04-04T15:35:30.827Z,8.10
2023-04-04T15:38:16.381Z,8.30
2023-04-04T15:41:01.885Z,11.40
2023-04-04T15:43:47.291Z,10.50
2023-04-04T15:46:32.650Z,9.40
2023-04-04T15:49:17.908Z,9.40
2023-04-04T15:52:03.942Z,8.50
2023-04-04T15:54:49.249Z,8.50
2023-04-04T15:57:34.899Z,10.60
2023-04-04T16:00:20.805Z,11.60
2023-04-04T16:03:06.586Z,9.50
2023-04-04T16:05:52.270Z,10.90
2023-04-04T16:08:37.875Z,10.90
2023-04-04T16:11:23.278Z,11.60
2023-04-04T16:14:13.306Z,12.60
2023-04-04T16:16:59.548Z,13.90
2023-04-04T16:19:45.052Z,13.40
2023-04-04T16:22:30.769Z,15.60
2023-04-04T16:25:16.286Z,16.20
2023-04-04T16:28:01.679Z,14.50
2023-04-04T16:30:47.540Z,15.00
2023-04-04T16:33:33.186Z,15.30
2023-04-04T16:36:18.814Z,15.20
2023-04-04T16:39:04.246Z,15.40
2023-04-04T16:41:49.550Z,16.80
2023-04-04T16:44:35.169Z,15.90
2023-04-04T16:47:21.042Z,16.60
2023-04-04T16:50:07.301Z,16.00
2023-04-04T16:52:52.628Z,16.50
2023-04-04T16:55:38.214Z,18.30
2023-04-04T16:58:23.930Z,17.60
2023-04-04T17:01:13.375Z,17.00
2023-04-04T17:03:59.329Z,16.40
2023-04-04T17:06:46.107Z,18.70
2023-04-04T17:09:31.688Z,18.30
2023-04-04T17:12:17.121Z,18.30
2023-04-04T17:15:04.046Z,17.50
2023-04-04T17:17:49.620Z,17.90
2023-04-04T17:20:35.227Z,19.10
2023-04-04T17:23:20.556Z,18.10
2023-04-04T17:26:06.309Z,21.10
2023-04-04T17:28:52.083Z,19.90
2023-04-04T17:31:39.303Z,20.40
2023-04-04T17:34:25.120Z,20.30
2023-04-04T17:37:11.641Z,20.80
2023-04-04T17:39:59.221Z,20.70
2023-04-04T17:42:44.648Z,20.60
2023-04-04T17:45:29.902Z,20.70
2023-04-04T17:48:16.524Z,21.10
2023-04-04T17:51:02.842Z,20.50
2023-04-04T17:53:48.430Z,21.90
2023-04-04T17:56:34.265Z,22.00
2023-04-04T17:59:19.727Z,20.90
2023-04-04T18:02:05.905Z,21.10
2023-04-04T18:04:52.021Z,21.40
2023-04-04T18:07:37.449Z,21.40
2023-04-04T18:10:22.942Z,22.90
2023-04-04T18:13:08.530Z,23.50
2023-04-04T18:15:53.940Z,23.20
2023-04-04T18:18:40.657Z,23.20
2023-04-04T18:21:26.774Z,23.80
2023-04-04T18:24:12.861Z,22.10
2023-04-04T18:26:58.608Z,25.90
2023-04-04T18:29:44.195Z,24.40
2023-04-04T18:32:30.752Z,24.00
2023-04-04T18:35:16.587Z,23.60
2023-04-04T18:38:02.162Z,24.90
2023-04-04T18:40:47.721Z,24.80
2023-04-04T18:43:33.103Z,24.20
2023-04-04T18:46:18.773Z,24.20
2023-04-04T18:49:04.651Z,24.00
2023-04-04T18:51:49.841Z,24.20
2023-04-04T18:54:35.509Z,24.20
2023-04-04T18:57:21.113Z,25.20
2023-04-04T19:00:08.271Z,25.50
2023-04-04T19:02:54.512Z,25.20
2023-04-04T19:05:40.668Z,25.20
2023-04-04T19:08:26.831Z,25.90
2023-04-04T19:11:12.369Z,26.00
2023-04-04T19:13:57.788Z,25.80
2023-04-04T19:16:43.208Z,26.50
2023-04-04T19:19:29.121Z,26.60
2023-04-04T19:22:14.496Z,26.20
2023-04-04T19:24:59.886Z,25.90
2023-04-04T19:27:45.573Z,26.40
2023-04-04T19:30:44.895Z,27.30
2023-04-04T19:33:33.227Z,27.20
2023-04-04T19:36:19.610Z,27.40
2023-04-04T19:39:05.622Z,26.50
2023-04-04T19:41:51.289Z,27.00
2023-04-04T19:44:39.365Z,27.10
2023-04-04T19:47:24.907Z,27.00
2023-04-04T19:50:38.077Z,27.60
2023-04-04T19:53:28.003Z,26.40
2023-04-04T19:56:16.608Z,28.00
2023-04-04T19:59:06.163Z,27.70
2023-04-04T20:02:00.162Z,27.90
2023-04-04T20:04:47.215Z,28.30
2023-04-04T20:07:32.804Z,28.40
2023-04-04T20:10:36.684Z,28.60
2023-04-04T20:13:22.561Z,28.60
2023-04-04T20:16:10.241Z,28.20
2023-04-04T20:18:59.053Z,28.50
2023-04-04T20:21:44.592Z,29.80
2023-04-04T20:24:30.260Z,29.00
2023-04-04T20:27:23.805Z,29.20
2023-04-04T20:30:11.755Z,30.00
2023-04-04T20:32:57.191Z,30.00
2023-04-04T20:35:42.541Z,29.60
2023-04-04T20:38:28.298Z,30.30
2023-04-04T20:41:22.201Z,30.30
2023-04-04T20:44:18.965Z,30.30
2023-04-04T20:47:07.784Z,29.60
2023-04-04T20:49:53.403Z,30.80
2023-04-04T20:52:38.920Z,29.80
2023-04-04T20:55:29.494Z,30.40
2023-04-04T20:58:30.148Z,30.10
2023-04-04T21:01:15.750Z,30.50
2023-04-04T21:04:01.133Z,30.10
2023-04-04T21:06:46.667Z,31.60
2023-04-04T21:09:32.226Z,31.30
2023-04-04T21:12:17.996Z,31.20
2023-04-04T21:15:09.148Z,31.60
2023-04-04T21:17:55.820Z,30.50
2023-04-04T21:20:47.712Z,31.80
2023-04-04T21:23:34.217Z,32.10
2023-04-04T21:26:32.378Z,31.40
2023-04-04T21:29:21.996Z,31.30
2023-04-04T21:32:08.508Z,30.90
2023-04-04T21:34:53.793Z,32.50
2023-04-04T21:37:39.498Z,32.50
2023-04-04T21:40:25.095Z,31.40
2023-04-04T21:43:10.830Z,31.40
2023-04-04T21:45:56.455Z,32.30
2023-04-04T21:48:42.404Z,32.80
2023-04-04T21:51:28.480Z,32.70
2023-04-04T21:54:14.761Z,32.60
2023-04-04T21:56:59.980Z,32.30
2023-04-04T21:59:45.484Z,32.30
2023-04-04T22:02:31.016Z,32.60
2023-04-04T22:05:18.164Z,31.60
2023-04-04T22:08:05.430Z,32.80
2023-04-04T22:10:52.380Z,31.70
2023-04-04T22:13:43.101Z,33.60
2023-04-04T22:16:30.516Z,33.20
2023-04-04T22:19:15.971Z,33.20
2023-04-04T22:22:01.304Z,32.70
2023-04-04T22:24:50.973Z,33.60
2023-04-04T22:27:39.914Z,32.60
2023-04-04T22:30:26.842Z,34.00
2023-04-04T22:33:12.119Z,33.20
2023-04-04T22:35:59.245Z,32.80
2023-04-04T22:38:44.879Z,33.70
2023-04-04T22:41:30.264Z,34.70
2023-04-04T22:44:18.005Z,34.30
2023-04-04T22:47:06.272Z,35.00
2023-04-04T22:49:52.015Z,34.70
2023-04-04T22:52:43.090Z,35.80
2023-04-04T22:55:28.909Z,34.80
2023-04-04T22:58:14.226Z,34.20
2023-04-04T23:00:59.506Z,34.80
2023-04-04T23:03:45.498Z,35.20
2023-04-04T23:06:31.441Z,34.90
2023-04-04T23:09:16.854Z,35.90
2023-04-04T23:12:02.507Z,35.20
2023-04-04T23:14:48.040Z,35.40
2023-04-04T23:17:34.569Z,35.60
2023-04-04T23:20:20.140Z,35.70
2023-04-04T23:23:05.733Z,35.70
2023-04-04T23:25:54.001Z,35.40
2023-04-04T23:28:39.491Z,36.00
2023-04-04T23:31:28.378Z,34.80
2023-04-04T23:34:14.114Z,35.80
2023-04-04T23:36:59.851Z,35.50
2023-04-04T23:39:45.625Z,35.70
2023-04-04T23:42:31.396Z,36.20
2023-04-04T23:45:17.107Z,36.20
2023-04-04T23:48:02.952Z,34.80
2023-04-04T23:50:50.351Z,35.50
2023-04-04T23:53:35.887Z,34.60
2023-04-04T23:56:21.538Z,34.60
2023-04-04T23:59:07.061Z,35.60
